sensor_id;sensor_type;location;lat;lon;timestamp;P1;P2;P0
77411;PMS7003;66484;49.968;19.140;2023-08-31T00:02:03;13.00;11.75;8.00
77411;PMS7003;66484;49.968;19.140;2023-08-31T00:04:29;16.00;14.00;10.75
77411;PMS7003;66484;49.968;19.140;2023-08-31T00:06:55;14.00;12.25;9.00
77411;PMS7003;66484;49.968;19.140;2023-08-31T00:09:22;13.50;13.50;7.50
77411;PMS7003;66484;49.968;19.140;2023-08-31T00:11:49;15.00;12.00;8.25
77411;PMS7003;66484;49.968;19.140;2023-08-31T00:14:15;12.50;12.00;9.00
77411;PMS7003;66484;49.968;19.140;2023-08-31T00:16:40;12.75;12.25;10.00
77411;PMS7003;66484;49.968;19.140;2023-08-31T00:19:06;16.00;15.25;11.00
77411;PMS7003;66484;49.968;19.140;2023-08-31T00:21:31;14.50;14.50;11.00
77411;PMS7003;66484;49.968;19.140;2023-08-31T00:23:58;14.75;13.50;8.75
77411;PMS7003;66484;49.968;19.140;2023-08-31T00:26:24;20.00;18.50;10.75
77411;PMS7003;66484;49.968;19.140;2023-08-31T00:28:49;15.75;15.25;10.25
77411;PMS7003;66484;49.968;19.140;2023-08-31T00:31:15;16.25;14.75;10.00
77411;PMS7003;66484;49.968;19.140;2023-08-31T00:33:40;15.00;14.50;9.00
77411;PMS7003;66484;49.968;19.140;2023-08-31T00:36:07;11.50;11.50;8.00
77411;PMS7003;66484;49.968;19.140;2023-08-31T00:38:32;17.00;16.75;11.25
77411;PMS7003;66484;49.968;19.140;2023-08-31T00:40:58;18.50;15.25;9.00
77411;PMS7003;66484;49.968;19.140;2023-08-31T00:43:24;15.00;13.00;9.75
77411;PMS7003;66484;49.968;19.140;2023-08-31T00:45:50;15.00;15.00;10.00
77411;PMS7003;66484;49.968;19.140;2023-08-31T00:48:18;18.00;17.00;12.00
77411;PMS7003;66484;49.968;19.140;2023-08-31T00:50:47;17.50;15.50;12.50
77411;PMS7003;66484;49.968;19.140;2023-08-31T00:53:13;15.50;14.00;9.50
77411;PMS7003;66484;49.968;19.140;2023-08-31T00:55:40;17.00;14.75;9.75
77411;PMS7003;66484;49.968;19.140;2023-08-31T00:58:06;12.75;12.75;9.25
77411;PMS7003;66484;49.968;19.140;2023-08-31T01:00:43;15.75;14.00;10.25
77411;PMS7003;66484;49.968;19.140;2023-08-31T01:03:12;17.25;15.50;11.00
77411;PMS7003;66484;49.968;19.140;2023-08-31T01:05:56;15.00;13.50;9.50
77411;PMS7003;66484;49.968;19.140;2023-08-31T01:08:43;18.50;14.75;10.75
77411;PMS7003;66484;49.968;19.140;2023-08-31T01:13:53;17.75;17.00;12.25
77411;PMS7003;66484;49.968;19.140;2023-08-31T01:16:33;16.00;16.00;10.75
77411;PMS7003;66484;49.968;19.140;2023-08-31T01:19:00;18.75;16.75;10.25
77411;PMS7003;66484;49.968;19.140;2023-08-31T01:21:32;22.75;17.25;12.00
77411;PMS7003;66484;49.968;19.140;2023-08-31T01:24:02;16.00;13.00;10.75
77411;PMS7003;66484;49.968;19.140;2023-08-31T01:26:29;15.75;15.00;10.00
77411;PMS7003;66484;49.968;19.140;2023-08-31T01:28:55;19.50;16.75;10.00
77411;PMS7003;66484;49.968;19.140;2023-08-31T01:31:21;17.25;17.25;13.50
77411;PMS7003;66484;49.968;19.140;2023-08-31T01:33:47;17.75;15.50;11.50
77411;PMS7003;66484;49.968;19.140;2023-08-31T01:36:16;16.75;16.25;12.00
77411;PMS7003;66484;49.968;19.140;2023-08-31T01:38:48;18.00;18.00;12.00
77411;PMS7003;66484;49.968;19.140;2023-08-31T01:41:19;17.00;14.25;9.75
77411;PMS7003;66484;49.968;19.140;2023-08-31T01:43:48;16.00;15.50;11.00
77411;PMS7003;66484;49.968;19.140;2023-08-31T01:46:16;19.25;17.25;11.00
77411;PMS7003;66484;49.968;19.140;2023-08-31T01:48:42;14.00;12.25;10.25
77411;PMS7003;66484;49.968;19.140;2023-08-31T01:51:08;14.00;14.00;10.50
77411;PMS7003;66484;49.968;19.140;2023-08-31T01:53:34;19.75;18.00;10.75
77411;PMS7003;66484;49.968;19.140;2023-08-31T01:55:59;15.50;14.50;10.75
77411;PMS7003;66484;49.968;19.140;2023-08-31T01:58:25;13.25;12.25;9.75
77411;PMS7003;66484;49.968;19.140;2023-08-31T02:00:51;11.75;11.75;8.50
77411;PMS7003;66484;49.968;19.140;2023-08-31T02:03:16;14.00;13.25;9.50
77411;PMS7003;66484;49.968;19.140;2023-08-31T02:05:41;13.50;13.50;9.75
77411;PMS7003;66484;49.968;19.140;2023-08-31T02:08:07;14.25;12.50;9.00
77411;PMS7003;66484;49.968;19.140;2023-08-31T02:10:33;14.50;12.50;9.50
77411;PMS7003;66484;49.968;19.140;2023-08-31T02:12:58;12.50;11.25;7.00
77411;PMS7003;66484;49.968;19.140;2023-08-31T02:15:25;14.25;12.50;8.50
77411;PMS7003;66484;49.968;19.140;2023-08-31T02:17:50;12.00;12.00;8.25
77411;PMS7003;66484;49.968;19.140;2023-08-31T02:20:16;13.25;12.00;8.50
77411;PMS7003;66484;49.968;19.140;2023-08-31T02:22:42;14.50;12.00;7.25
77411;PMS7003;66484;49.968;19.140;2023-08-31T02:25:07;12.75;12.25;7.75
77411;PMS7003;66484;49.968;19.140;2023-08-31T02:27:33;11.50;11.00;8.00
77411;PMS7003;66484;49.968;19.140;2023-08-31T02:29:59;12.75;12.75;8.50
77411;PMS7003;66484;49.968;19.140;2023-08-31T02:32:24;12.00;10.50;7.75
77411;PMS7003;66484;49.968;19.140;2023-08-31T02:34:49;19.75;15.00;9.50
77411;PMS7003;66484;49.968;19.140;2023-08-31T02:37:15;14.25;13.00;9.25
77411;PMS7003;66484;49.968;19.140;2023-08-31T02:39:41;17.75;17.00;11.50
77411;PMS7003;66484;49.968;19.140;2023-08-31T02:42:06;15.50;12.75;10.00
77411;PMS7003;66484;49.968;19.140;2023-08-31T02:44:32;12.25;12.00;9.25
77411;PMS7003;66484;49.968;19.140;2023-08-31T02:46:58;11.75;11.75;8.00
77411;PMS7003;66484;49.968;19.140;2023-08-31T02:49:23;12.75;12.75;8.00
77411;PMS7003;66484;49.968;19.140;2023-08-31T02:51:49;13.00;12.00;7.75
77411;PMS7003;66484;49.968;19.140;2023-08-31T02:54:15;10.50;8.75;5.75
77411;PMS7003;66484;49.968;19.140;2023-08-31T02:56:40;17.75;15.00;11.75
77411;PMS7003;66484;49.968;19.140;2023-08-31T02:59:06;15.50;12.00;9.00
77411;PMS7003;66484;49.968;19.140;2023-08-31T03:01:32;9.25;8.25;5.25
77411;PMS7003;66484;49.968;19.140;2023-08-31T03:03:57;7.50;7.50;5.50
77411;PMS7003;66484;49.968;19.140;2023-08-31T03:06:23;7.50;6.50;5.25
77411;PMS7003;66484;49.968;19.140;2023-08-31T03:08:48;8.50;7.50;5.75
77411;PMS7003;66484;49.968;19.140;2023-08-31T03:11:13;7.00;6.00;5.50
77411;PMS7003;66484;49.968;19.140;2023-08-31T03:13:39;8.25;6.50;6.25
77411;PMS7003;66484;49.968;19.140;2023-08-31T03:16:06;8.00;6.75;5.75
77411;PMS7003;66484;49.968;19.140;2023-08-31T03:18:32;8.00;8.00;5.00
77411;PMS7003;66484;49.968;19.140;2023-08-31T03:20:58;8.25;8.25;6.00
77411;PMS7003;66484;49.968;19.140;2023-08-31T03:23:24;6.25;4.75;3.00
77411;PMS7003;66484;49.968;19.140;2023-08-31T03:25:50;9.50;9.50;7.00
77411;PMS7003;66484;49.968;19.140;2023-08-31T03:28:15;10.75;9.00;6.75
77411;PMS7003;66484;49.968;19.140;2023-08-31T03:30:41;10.00;10.00;7.00
77411;PMS7003;66484;49.968;19.140;2023-08-31T03:33:09;10.00;9.25;7.50
77411;PMS7003;66484;49.968;19.140;2023-08-31T03:35:35;9.50;9.50;5.50
77411;PMS7003;66484;49.968;19.140;2023-08-31T03:38:01;8.00;8.00;6.00
77411;PMS7003;66484;49.968;19.140;2023-08-31T03:40:26;9.00;9.00;7.00
77411;PMS7003;66484;49.968;19.140;2023-08-31T03:42:52;12.50;12.50;8.00
77411;PMS7003;66484;49.968;19.140;2023-08-31T03:45:19;11.75;11.75;9.00
77411;PMS7003;66484;49.968;19.140;2023-08-31T03:47:44;10.50;9.75;7.00
77411;PMS7003;66484;49.968;19.140;2023-08-31T03:50:10;11.75;11.75;8.25
77411;PMS7003;66484;49.968;19.140;2023-08-31T03:52:36;13.75;12.00;7.50
77411;PMS7003;66484;49.968;19.140;2023-08-31T03:55:01;15.25;13.00;9.00
77411;PMS7003;66484;49.968;19.140;2023-08-31T03:57:27;12.25;10.50;8.00
77411;PMS7003;66484;49.968;19.140;2023-08-31T03:59:52;12.75;8.75;6.75
77411;PMS7003;66484;49.968;19.140;2023-08-31T04:02:18;15.00;14.00;7.75
77411;PMS7003;66484;49.968;19.140;2023-08-31T04:04:43;14.25;14.25;10.00
77411;PMS7003;66484;49.968;19.140;2023-08-31T04:07:09;12.00;10.75;6.75
77411;PMS7003;66484;49.968;19.140;2023-08-31T04:09:34;13.50;13.50;8.25
77411;PMS7003;66484;49.968;19.140;2023-08-31T04:12:00;11.00;11.00;7.00
77411;PMS7003;66484;49.968;19.140;2023-08-31T04:14:26;14.75;14.75;9.50
77411;PMS7003;66484;49.968;19.140;2023-08-31T04:16:52;13.75;13.75;9.50
77411;PMS7003;66484;49.968;19.140;2023-08-31T04:19:18;14.50;14.50;9.75
77411;PMS7003;66484;49.968;19.140;2023-08-31T04:21:44;17.00;15.75;11.25
77411;PMS7003;66484;49.968;19.140;2023-08-31T04:24:09;16.50;14.25;9.75
77411;PMS7003;66484;49.968;19.140;2023-08-31T04:26:35;20.25;15.50;9.50
77411;PMS7003;66484;49.968;19.140;2023-08-31T04:29:02;14.25;14.25;9.00
77411;PMS7003;66484;49.968;19.140;2023-08-31T04:31:29;20.75;16.75;9.75
77411;PMS7003;66484;49.968;19.140;2023-08-31T04:33:54;12.50;12.50;10.00
77411;PMS7003;66484;49.968;19.140;2023-08-31T04:36:20;19.00;16.75;10.00
77411;PMS7003;66484;49.968;19.140;2023-08-31T04:38:46;16.25;12.50;9.00
77411;PMS7003;66484;49.968;19.140;2023-08-31T04:41:13;16.00;15.00;11.50
77411;PMS7003;66484;49.968;19.140;2023-08-31T04:43:39;17.75;16.00;11.00
77411;PMS7003;66484;49.968;19.140;2023-08-31T04:46:05;13.75;13.25;10.50
77411;PMS7003;66484;49.968;19.140;2023-08-31T04:48:30;16.50;15.50;10.00
77411;PMS7003;66484;49.968;19.140;2023-08-31T04:50:56;16.25;12.75;9.00
77411;PMS7003;66484;49.968;19.140;2023-08-31T04:53:24;15.75;13.50;9.50
77411;PMS7003;66484;49.968;19.140;2023-08-31T04:55:50;21.25;15.50;11.00
77411;PMS7003;66484;49.968;19.140;2023-08-31T04:58:16;15.25;14.75;9.50
77411;PMS7003;66484;49.968;19.140;2023-08-31T05:00:42;14.75;11.75;9.75
77411;PMS7003;66484;49.968;19.140;2023-08-31T05:03:09;14.25;14.00;9.00
77411;PMS7003;66484;49.968;19.140;2023-08-31T05:05:35;13.50;12.75;9.00
77411;PMS7003;66484;49.968;19.140;2023-08-31T05:08:00;12.50;12.50;8.25
77411;PMS7003;66484;49.968;19.140;2023-08-31T05:10:26;12.75;10.75;6.25
77411;PMS7003;66484;49.968;19.140;2023-08-31T05:12:51;11.50;11.50;7.75
77411;PMS7003;66484;49.968;19.140;2023-08-31T05:15:17;17.00;11.00;7.50
77411;PMS7003;66484;49.968;19.140;2023-08-31T05:17:42;20.25;12.50;9.00
77411;PMS7003;66484;49.968;19.140;2023-08-31T05:20:08;13.25;11.75;7.50
77411;PMS7003;66484;49.968;19.140;2023-08-31T05:22:35;15.00;14.00;9.75
77411;PMS7003;66484;49.968;19.140;2023-08-31T05:25:00;14.25;12.00;8.00
77411;PMS7003;66484;49.968;19.140;2023-08-31T05:27:26;14.50;13.00;8.00
77411;PMS7003;66484;49.968;19.140;2023-08-31T05:29:51;12.00;8.50;5.50
77411;PMS7003;66484;49.968;19.140;2023-08-31T05:32:17;9.50;9.50;7.00
77411;PMS7003;66484;49.968;19.140;2023-08-31T05:34:43;10.75;10.75;8.50
77411;PMS7003;66484;49.968;19.140;2023-08-31T05:37:08;7.75;7.75;5.50
77411;PMS7003;66484;49.968;19.140;2023-08-31T05:39:34;12.00;8.00;6.00
77411;PMS7003;66484;49.968;19.140;2023-08-31T05:42:00;6.25;5.75;3.25
77411;PMS7003;66484;49.968;19.140;2023-08-31T05:44:26;9.50;8.00;5.75
77411;PMS7003;66484;49.968;19.140;2023-08-31T05:46:51;8.75;7.75;5.25
77411;PMS7003;66484;49.968;19.140;2023-08-31T05:49:17;7.50;7.25;5.50
77411;PMS7003;66484;49.968;19.140;2023-08-31T05:51:42;7.25;6.50;4.75
77411;PMS7003;66484;49.968;19.140;2023-08-31T05:54:08;5.00;5.00;3.00
77411;PMS7003;66484;49.968;19.140;2023-08-31T05:56:40;6.25;6.25;5.00
77411;PMS7003;66484;49.968;19.140;2023-08-31T05:59:08;8.75;8.25;4.50
77411;PMS7003;66484;49.968;19.140;2023-08-31T06:01:34;6.00;4.00;3.00
77411;PMS7003;66484;49.968;19.140;2023-08-31T06:04:01;6.50;5.75;5.00
77411;PMS7003;66484;49.968;19.140;2023-08-31T06:06:28;9.25;7.00;5.00
77411;PMS7003;66484;49.968;19.140;2023-08-31T06:08:54;5.00;5.00;3.50
77411;PMS7003;66484;49.968;19.140;2023-08-31T06:11:21;6.25;4.50;4.00
77411;PMS7003;66484;49.968;19.140;2023-08-31T06:13:47;5.00;5.00;4.50
77411;PMS7003;66484;49.968;19.140;2023-08-31T06:16:13;7.00;7.00;6.00
77411;PMS7003;66484;49.968;19.140;2023-08-31T06:18:38;3.75;3.75;2.00
77411;PMS7003;66484;49.968;19.140;2023-08-31T06:21:04;2.25;2.25;1.25
77411;PMS7003;66484;49.968;19.140;2023-08-31T06:23:30;3.75;3.75;1.50
77411;PMS7003;66484;49.968;19.140;2023-08-31T06:25:55;5.00;5.00;4.00
77411;PMS7003;66484;49.968;19.140;2023-08-31T06:28:21;5.75;5.75;3.00
77411;PMS7003;66484;49.968;19.140;2023-08-31T06:30:46;9.50;5.25;2.50
77411;PMS7003;66484;49.968;19.140;2023-08-31T06:33:13;7.00;5.00;3.00
77411;PMS7003;66484;49.968;19.140;2023-08-31T06:35:39;4.25;3.25;2.50
77411;PMS7003;66484;49.968;19.140;2023-08-31T06:38:05;4.00;4.00;3.00
77411;PMS7003;66484;49.968;19.140;2023-08-31T06:40:30;4.25;4.25;3.25
77411;PMS7003;66484;49.968;19.140;2023-08-31T06:42:56;4.00;4.00;3.00
77411;PMS7003;66484;49.968;19.140;2023-08-31T06:45:22;6.00;5.50;4.75
77411;PMS7003;66484;49.968;19.140;2023-08-31T06:47:48;2.25;1.00;1.00
77411;PMS7003;66484;49.968;19.140;2023-08-31T06:50:13;3.25;3.25;2.00
77411;PMS7003;66484;49.968;19.140;2023-08-31T06:52:39;5.25;5.25;5.00
77411;PMS7003;66484;49.968;19.140;2023-08-31T06:55:06;5.50;3.75;2.75
77411;PMS7003;66484;49.968;19.140;2023-08-31T06:57:32;1.50;1.50;1.00
77411;PMS7003;66484;49.968;19.140;2023-08-31T06:59:57;3.75;3.75;2.00
77411;PMS7003;66484;49.968;19.140;2023-08-31T07:02:25;4.75;4.00;3.25
77411;PMS7003;66484;49.968;19.140;2023-08-31T07:04:51;4.25;2.75;1.75
77411;PMS7003;66484;49.968;19.140;2023-08-31T07:07:17;2.00;2.00;2.00
77411;PMS7003;66484;49.968;19.140;2023-08-31T07:09:43;4.50;3.50;3.00
77411;PMS7003;66484;49.968;19.140;2023-08-31T07:12:09;2.00;2.00;2.00
77411;PMS7003;66484;49.968;19.140;2023-08-31T07:14:35;4.25;3.00;2.50
77411;PMS7003;66484;49.968;19.140;2023-08-31T07:17:01;3.50;3.50;1.75
77411;PMS7003;66484;49.968;19.140;2023-08-31T07:19:27;3.00;3.00;3.00
77411;PMS7003;66484;49.968;19.140;2023-08-31T07:21:52;2.50;1.50;1.50
77411;PMS7003;66484;49.968;19.140;2023-08-31T07:24:20;4.00;4.00;3.75
77411;PMS7003;66484;49.968;19.140;2023-08-31T07:26:46;3.25;3.25;2.50
77411;PMS7003;66484;49.968;19.140;2023-08-31T07:29:12;1.25;1.25;1.00
77411;PMS7003;66484;49.968;19.140;2023-08-31T07:31:37;1.75;1.75;1.50
77411;PMS7003;66484;49.968;19.140;2023-08-31T07:34:03;2.50;1.00;1.00
77411;PMS7003;66484;49.968;19.140;2023-08-31T07:36:29;0.25;0.25;0.00
77411;PMS7003;66484;49.968;19.140;2023-08-31T07:38:54;2.25;1.50;1.00
77411;PMS7003;66484;49.968;19.140;2023-08-31T07:41:19;1.00;1.00;0.00
77411;PMS7003;66484;49.968;19.140;2023-08-31T07:43:45;0.00;0.00;0.00
77411;PMS7003;66484;49.968;19.140;2023-08-31T07:46:10;2.75;2.75;1.75
77411;PMS7003;66484;49.968;19.140;2023-08-31T07:48:36;0.00;0.00;0.00
77411;PMS7003;66484;49.968;19.140;2023-08-31T07:51:03;0.75;0.75;0.75
77411;PMS7003;66484;49.968;19.140;2023-08-31T07:53:28;1.75;1.00;0.50
77411;PMS7003;66484;49.968;19.140;2023-08-31T07:55:54;2.00;2.00;1.75
77411;PMS7003;66484;49.968;19.140;2023-08-31T07:58:21;1.00;1.00;0.25
77411;PMS7003;66484;49.968;19.140;2023-08-31T08:00:47;2.00;2.00;1.25
77411;PMS7003;66484;49.968;19.140;2023-08-31T08:03:13;1.75;1.75;1.75
77411;PMS7003;66484;49.968;19.140;2023-08-31T08:05:39;1.00;1.00;0.25
77411;PMS7003;66484;49.968;19.140;2023-08-31T08:08:05;1.75;1.75;1.50
77411;PMS7003;66484;49.968;19.140;2023-08-31T08:10:31;0.25;0.25;0.00
77411;PMS7003;66484;49.968;19.140;2023-08-31T08:12:56;0.50;0.50;0.25
77411;PMS7003;66484;49.968;19.140;2023-08-31T08:15:22;0.75;0.75;0.00
77411;PMS7003;66484;49.968;19.140;2023-08-31T08:17:47;1.00;1.00;0.00
77411;PMS7003;66484;49.968;19.140;2023-08-31T08:20:13;2.00;1.00;1.00
77411;PMS7003;66484;49.968;19.140;2023-08-31T08:22:39;0.00;0.00;0.00
77411;PMS7003;66484;49.968;19.140;2023-08-31T08:25:04;1.00;1.00;0.00
77411;PMS7003;66484;49.968;19.140;2023-08-31T08:27:31;2.00;2.00;1.00
77411;PMS7003;66484;49.968;19.140;2023-08-31T08:29:58;0.50;0.50;0.50
77411;PMS7003;66484;49.968;19.140;2023-08-31T08:32:23;0.75;0.75;0.75
77411;PMS7003;66484;49.968;19.140;2023-08-31T08:34:49;0.00;0.00;0.00
77411;PMS7003;66484;49.968;19.140;2023-08-31T08:37:15;2.75;2.00;1.00
77411;PMS7003;66484;49.968;19.140;2023-08-31T08:39:41;1.75;1.75;0.75
77411;PMS7003;66484;49.968;19.140;2023-08-31T08:42:07;1.75;1.75;1.75
77411;PMS7003;66484;49.968;19.140;2023-08-31T08:44:35;0.00;0.00;0.00
77411;PMS7003;66484;49.968;19.140;2023-08-31T08:47:01;1.50;1.50;1.00
77411;PMS7003;66484;49.968;19.140;2023-08-31T08:49:27;1.50;1.50;1.00
77411;PMS7003;66484;49.968;19.140;2023-08-31T08:51:55;3.50;2.00;1.00
77411;PMS7003;66484;49.968;19.140;2023-08-31T08:54:22;1.75;1.75;1.75
77411;PMS7003;66484;49.968;19.140;2023-08-31T08:56:47;2.50;2.50;1.50
77411;PMS7003;66484;49.968;19.140;2023-08-31T08:59:13;0.00;0.00;0.00
77411;PMS7003;66484;49.968;19.140;2023-08-31T09:01:39;2.00;2.00;1.00
77411;PMS7003;66484;49.968;19.140;2023-08-31T09:04:05;0.75;0.75;0.00
77411;PMS7003;66484;49.968;19.140;2023-08-31T09:06:31;2.00;2.00;1.25
77411;PMS7003;66484;49.968;19.140;2023-08-31T09:08:57;3.75;1.75;1.00
77411;PMS7003;66484;49.968;19.140;2023-08-31T09:11:22;2.00;2.00;2.00
77411;PMS7003;66484;49.968;19.140;2023-08-31T09:13:49;2.50;2.00;1.00
77411;PMS7003;66484;49.968;19.140;2023-08-31T09:16:25;1.75;1.00;0.75
77411;PMS7003;66484;49.968;19.140;2023-08-31T09:18:51;2.00;2.00;1.00
77411;PMS7003;66484;49.968;19.140;2023-08-31T09:21:17;3.75;2.75;2.00
77411;PMS7003;66484;49.968;19.140;2023-08-31T09:23:46;3.25;2.25;2.00
77411;PMS7003;66484;49.968;19.140;2023-08-31T09:26:13;3.75;3.75;3.00
77411;PMS7003;66484;49.968;19.140;2023-08-31T09:28:40;3.00;3.00;2.25
77411;PMS7003;66484;49.968;19.140;2023-08-31T09:31:07;3.00;3.00;3.00
77411;PMS7003;66484;49.968;19.140;2023-08-31T09:33:34;4.50;4.50;3.00
77411;PMS7003;66484;49.968;19.140;2023-08-31T09:36:01;2.75;2.75;2.00
77411;PMS7003;66484;49.968;19.140;2023-08-31T09:38:28;4.25;3.75;3.00
77411;PMS7003;66484;49.968;19.140;2023-08-31T09:41:03;4.50;4.50;3.00
77411;PMS7003;66484;49.968;19.140;2023-08-31T09:43:30;4.00;4.00;3.50
77411;PMS7003;66484;49.968;19.140;2023-08-31T09:45:56;4.25;4.25;4.00
77411;PMS7003;66484;49.968;19.140;2023-08-31T09:48:21;4.50;4.50;3.50
77411;PMS7003;66484;49.968;19.140;2023-08-31T09:50:48;5.00;5.00;4.00
77411;PMS7003;66484;49.968;19.140;2023-08-31T09:53:15;5.00;5.00;4.00
77411;PMS7003;66484;49.968;19.140;2023-08-31T09:55:42;4.00;4.00;3.00
77411;PMS7003;66484;49.968;19.140;2023-08-31T09:58:08;7.50;6.50;5.00
77411;PMS7003;66484;49.968;19.140;2023-08-31T10:00:35;7.25;6.00;4.00
77411;PMS7003;66484;49.968;19.140;2023-08-31T10:03:02;4.75;4.00;3.00
77411;PMS7003;66484;49.968;19.140;2023-08-31T10:05:30;3.50;3.50;3.00
77411;PMS7003;66484;49.968;19.140;2023-08-31T10:07:57;5.75;5.75;5.00
77411;PMS7003;66484;49.968;19.140;2023-08-31T10:10:24;7.00;7.00;5.75
77411;PMS7003;66484;49.968;19.140;2023-08-31T10:12:50;5.75;5.75;5.00
77411;PMS7003;66484;49.968;19.140;2023-08-31T10:15:16;5.00;5.00;4.00
77411;PMS7003;66484;49.968;19.140;2023-08-31T10:17:43;3.50;3.50;2.50
77411;PMS7003;66484;49.968;19.140;2023-08-31T10:20:10;9.00;5.00;4.00
77411;PMS7003;66484;49.968;19.140;2023-08-31T10:22:37;7.00;5.00;4.00
77411;PMS7003;66484;49.968;19.140;2023-08-31T10:25:04;5.00;4.00;4.00
77411;PMS7003;66484;49.968;19.140;2023-08-31T10:27:41;5.25;5.25;5.00
77411;PMS7003;66484;49.968;19.140;2023-08-31T10:36:11;8.25;5.25;4.00
77411;PMS7003;66484;49.968;19.140;2023-08-31T10:38:29;6.25;6.25;5.00
77411;PMS7003;66484;49.968;19.140;2023-08-31T10:41:03;6.25;6.25;5.25
77411;PMS7003;66484;49.968;19.140;2023-08-31T10:43:53;7.50;6.75;5.00
77411;PMS7003;66484;49.968;19.140;2023-08-31T10:48:58;6.75;6.00;4.00
77411;PMS7003;66484;49.968;19.140;2023-08-31T10:51:25;5.00;5.00;4.25
77411;PMS7003;66484;49.968;19.140;2023-08-31T10:54:03;9.00;9.00;7.50
77411;PMS7003;66484;49.968;19.140;2023-08-31T10:56:31;7.75;6.00;5.00
77411;PMS7003;66484;49.968;19.140;2023-08-31T10:58:58;9.25;8.75;7.50
77411;PMS7003;66484;49.968;19.140;2023-08-31T11:04:22;10.00;9.00;6.50
77411;PMS7003;66484;49.968;19.140;2023-08-31T11:06:48;8.50;7.50;5.75
77411;PMS7003;66484;49.968;19.140;2023-08-31T11:09:20;7.00;6.00;4.25
77411;PMS7003;66484;49.968;19.140;2023-08-31T11:11:46;8.75;7.75;6.25
77411;PMS7003;66484;49.968;19.140;2023-08-31T11:14:13;13.25;11.75;6.25
77411;PMS7003;66484;49.968;19.140;2023-08-31T11:16:41;7.75;6.25;5.50
77411;PMS7003;66484;49.968;19.140;2023-08-31T11:19:06;6.25;6.25;5.75
77411;PMS7003;66484;49.968;19.140;2023-08-31T11:21:32;7.25;7.25;6.50
77411;PMS7003;66484;49.968;19.140;2023-08-31T11:23:58;8.00;8.00;6.00
77411;PMS7003;66484;49.968;19.140;2023-08-31T11:26:25;8.25;8.25;7.00
77411;PMS7003;66484;49.968;19.140;2023-08-31T11:28:51;8.50;8.50;7.00
77411;PMS7003;66484;49.968;19.140;2023-08-31T11:31:26;6.00;5.25;4.00
77411;PMS7003;66484;49.968;19.140;2023-08-31T11:33:52;6.00;6.00;4.50
77411;PMS7003;66484;49.968;19.140;2023-08-31T11:36:20;8.00;8.00;6.50
77411;PMS7003;66484;49.968;19.140;2023-08-31T11:38:47;7.25;6.75;5.00
77411;PMS7003;66484;49.968;19.140;2023-08-31T11:41:15;6.25;6.25;5.00
77411;PMS7003;66484;49.968;19.140;2023-08-31T11:43:40;6.50;6.50;5.00
77411;PMS7003;66484;49.968;19.140;2023-08-31T11:46:06;6.50;6.50;6.00
77411;PMS7003;66484;49.968;19.140;2023-08-31T11:48:32;48.25;40.00;27.25
77411;PMS7003;66484;49.968;19.140;2023-08-31T11:50:59;8.75;8.75;6.50
77411;PMS7003;66484;49.968;19.140;2023-08-31T11:53:25;14.25;12.25;8.75
77411;PMS7003;66484;49.968;19.140;2023-08-31T11:55:52;10.75;10.75;8.00
77411;PMS7003;66484;49.968;19.140;2023-08-31T11:58:19;6.25;6.25;5.25
77411;PMS7003;66484;49.968;19.140;2023-08-31T12:00:45;9.50;8.50;6.75
77411;PMS7003;66484;49.968;19.140;2023-08-31T12:03:19;7.25;5.25;4.25
77411;PMS7003;66484;49.968;19.140;2023-08-31T12:05:45;6.75;5.50;4.50
77411;PMS7003;66484;49.968;19.140;2023-08-31T12:08:11;5.75;5.75;4.75
77411;PMS7003;66484;49.968;19.140;2023-08-31T12:10:40;23.50;15.75;11.75
77411;PMS7003;66484;49.968;19.140;2023-08-31T12:13:09;7.25;7.25;6.00
77411;PMS7003;66484;49.968;19.140;2023-08-31T12:15:38;12.00;10.00;6.75
77411;PMS7003;66484;49.968;19.140;2023-08-31T12:18:10;8.75;6.00;6.00
77411;PMS7003;66484;49.968;19.140;2023-08-31T12:20:45;5.00;5.00;4.00
77411;PMS7003;66484;49.968;19.140;2023-08-31T12:23:17;7.00;7.00;5.25
77411;PMS7003;66484;49.968;19.140;2023-08-31T12:25:50;6.50;5.50;4.00
77411;PMS7003;66484;49.968;19.140;2023-08-31T12:28:16;6.50;6.50;5.25
77411;PMS7003;66484;49.968;19.140;2023-08-31T12:30:46;11.75;11.00;8.50
77411;PMS7003;66484;49.968;19.140;2023-08-31T12:33:19;5.50;5.00;4.00
77411;PMS7003;66484;49.968;19.140;2023-08-31T12:35:46;6.75;6.75;5.75
77411;PMS7003;66484;49.968;19.140;2023-08-31T12:38:12;5.00;4.00;2.50
77411;PMS7003;66484;49.968;19.140;2023-08-31T12:40:38;4.00;3.00;2.50
77411;PMS7003;66484;49.968;19.140;2023-08-31T12:43:04;6.00;6.00;4.75
77411;PMS7003;66484;49.968;19.140;2023-08-31T12:45:30;3.75;3.75;3.25
77411;PMS7003;66484;49.968;19.140;2023-08-31T12:47:55;7.00;7.00;6.00
77411;PMS7003;66484;49.968;19.140;2023-08-31T12:50:21;5.00;4.75;4.25
77411;PMS7003;66484;49.968;19.140;2023-08-31T12:52:47;6.00;6.00;4.50
77411;PMS7003;66484;49.968;19.140;2023-08-31T12:55:13;6.50;6.50;5.00
77411;PMS7003;66484;49.968;19.140;2023-08-31T12:57:39;4.50;4.50;3.50
77411;PMS7003;66484;49.968;19.140;2023-08-31T13:00:06;5.50;5.50;4.75
77411;PMS7003;66484;49.968;19.140;2023-08-31T13:02:36;5.50;5.50;5.25
77411;PMS7003;66484;49.968;19.140;2023-08-31T13:05:02;7.75;6.50;5.75
77411;PMS7003;66484;49.968;19.140;2023-08-31T13:07:28;5.50;4.75;4.00
77411;PMS7003;66484;49.968;19.140;2023-08-31T13:09:53;7.50;7.50;5.75
77411;PMS7003;66484;49.968;19.140;2023-08-31T13:12:19;6.25;6.25;5.00
77411;PMS7003;66484;49.968;19.140;2023-08-31T13:14:45;6.00;6.00;5.25
77411;PMS7003;66484;49.968;19.140;2023-08-31T13:17:10;7.75;7.75;5.75
77411;PMS7003;66484;49.968;19.140;2023-08-31T13:19:36;6.00;5.25;4.00
77411;PMS7003;66484;49.968;19.140;2023-08-31T13:22:01;5.25;3.75;2.50
77411;PMS7003;66484;49.968;19.140;2023-08-31T13:24:27;6.75;6.75;5.50
77411;PMS7003;66484;49.968;19.140;2023-08-31T13:26:53;7.50;5.75;5.00
77411;PMS7003;66484;49.968;19.140;2023-08-31T13:29:18;5.25;5.25;4.25
77411;PMS7003;66484;49.968;19.140;2023-08-31T13:31:44;9.00;8.75;6.00
77411;PMS7003;66484;49.968;19.140;2023-08-31T13:34:10;7.50;6.25;5.00
77411;PMS7003;66484;49.968;19.140;2023-08-31T13:36:36;5.00;4.75;2.75
77411;PMS7003;66484;49.968;19.140;2023-08-31T13:39:01;5.75;5.75;3.75
77411;PMS7003;66484;49.968;19.140;2023-08-31T13:41:28;5.00;4.00;3.00
77411;PMS7003;66484;49.968;19.140;2023-08-31T13:43:55;3.50;3.50;3.00
77411;PMS7003;66484;49.968;19.140;2023-08-31T13:46:20;7.25;6.00;4.50
77411;PMS7003;66484;49.968;19.140;2023-08-31T13:48:46;5.00;4.75;4.50
77411;PMS7003;66484;49.968;19.140;2023-08-31T13:51:13;8.50;8.50;7.50
77411;PMS7003;66484;49.968;19.140;2023-08-31T13:53:38;6.25;6.25;3.50
77411;PMS7003;66484;49.968;19.140;2023-08-31T13:56:04;7.50;7.50;6.75
77411;PMS7003;66484;49.968;19.140;2023-08-31T13:58:30;9.75;7.75;7.25
77411;PMS7003;66484;49.968;19.140;2023-08-31T14:00:55;9.25;8.00;6.50
77411;PMS7003;66484;49.968;19.140;2023-08-31T14:03:21;8.00;8.00;5.50
77411;PMS7003;66484;49.968;19.140;2023-08-31T14:05:49;6.00;5.00;4.00
77411;PMS7003;66484;49.968;19.140;2023-08-31T14:08:15;7.50;7.50;6.00
77411;PMS7003;66484;49.968;19.140;2023-08-31T14:10:41;9.00;8.25;7.50